Time;durP1;ratioP1;P1;durP2;ratioP2;P2;SDS_P1;SDS_P2;PMS_P1;PMS_P2;Temp;Humidity;BMP_temperature;BMP_pressure;BME280_temperature;BME280_humidity;BME280_pressure;Samples;Min_cycle;Max_cycle;Signal;HPM_P1;HPM_P2
2024/04/16 00:00:39;;;;;;;1999.90;999.90;;;10.60;96.50;;;;;;5410506;26;20002;-78
2024/04/16 00:03:05;;;;;;;1999.90;999.90;;;10.80;96.30;;;;;;5416229;26;20027;-80
2024/04/16 00:05:31;;;;;;;1999.90;999.90;;;10.60;96.60;;;;;;5412719;26;20802;-80
2024/04/16 00:07:56;;;;;;;1999.90;999.90;;;10.50;97.00;;;;;;5417311;26;20011;-79
2024/04/16 00:10:22;;;;;;;1999.90;999.90;;;10.50;97.10;;;;;;5419136;26;20018;-80
2024/04/16 00:12:48;;;;;;;1999.90;999.90;;;10.60;96.70;;;;;;5430000;26;20432;-80
2024/04/16 00:15:14;;;;;;;1999.90;999.90;;;10.60;96.50;;;;;;5406082;26;20011;-80
2024/04/16 00:17:40;;;;;;;1999.90;999.90;;;10.50;96.70;;;;;;5430249;26;20003;-81
2024/04/16 00:20:07;;;;;;;1999.90;999.90;;;10.50;96.70;;;;;;5425450;26;19999;-79
2024/04/16 00:22:33;;;;;;;1999.90;999.90;;;10.50;96.60;;;;;;5412369;26;20073;-79
2024/04/16 00:24:59;;;;;;;;;;;10.30;97.00;;;;;;5421240;26;20039;-81
2024/04/16 00:27:25;;;;;;;1999.90;999.90;;;10.50;97.20;;;;;;5422475;26;20486;-81
2024/04/16 00:29:50;;;;;;;1999.90;999.90;;;10.50;96.90;;;;;;5420021;26;20011;-80
2024/04/16 00:32:16;;;;;;;1999.90;999.90;;;10.50;96.80;;;;;;5424559;26;19999;-79
2024/04/16 00:34:42;;;;;;;1999.90;999.90;;;10.60;97.00;;;;;;5422679;26;20076;-80
2024/04/16 00:37:07;;;;;;;1999.90;999.90;;;10.50;96.70;;;;;;5434214;26;20075;-82
2024/04/16 00:39:33;;;;;;;1999.90;999.90;;;10.50;97.40;;;;;;5414970;26;20011;-83
2024/04/16 00:41:59;;;;;;;1999.90;999.90;;;10.40;97.00;;;;;;5417260;26;20053;-83
2024/04/16 00:44:25;;;;;;;1999.90;999.90;;;10.50;97.10;;;;;;5412768;26;20077;-85
2024/04/16 00:46:51;;;;;;;1999.90;999.90;;;10.40;97.40;;;;;;5417608;26;20010;-82
2024/04/16 00:49:16;;;;;;;1999.90;999.90;;;10.50;97.70;;;;;;5433111;26;19995;-80
2024/04/16 00:51:43;;;;;;;1999.90;999.90;;;10.50;97.30;;;;;;5414605;26;20856;-81
2024/04/16 00:54:09;;;;;;;1999.90;999.90;;;10.60;97.30;;;;;;5415651;26;20014;-83
2024/04/16 00:56:36;;;;;;;1999.90;999.90;;;10.60;96.70;;;;;;5421872;26;20011;-82
2024/04/16 00:59:02;;;;;;;;;;;10.60;97.20;;;;;;5424679;26;20079;-82
2024/04/16 01:01:28;;;;;;;1999.90;999.90;;;10.50;97.00;;;;;;5419187;26;19964;-84
2024/04/16 01:03:56;;;;;;;1999.90;999.90;;;10.50;97.20;;;;;;5412784;26;20592;-80
2024/04/16 01:06:25;;;;;;;1999.90;999.90;;;10.50;97.10;;;;;;5417796;26;20018;-81
2024/04/16 01:08:51;;;;;;;1999.90;999.90;;;10.70;96.70;;;;;;5412662;26;20011;-83
2024/04/16 01:11:27;;;;;;;1999.90;999.90;;;10.50;96.80;;;;;;5423787;26;20006;-80
2024/04/16 01:13:54;;;;;;;1999.90;999.90;;;10.60;97.20;;;;;;5409129;26;20851;-84
2024/04/16 01:16:20;;;;;;;1999.90;999.90;;;10.60;96.80;;;;;;5426788;26;20032;-82
2024/04/16 01:18:46;;;;;;;1999.90;999.90;;;10.70;96.70;;;;;;5431728;26;20003;-81
2024/04/16 01:21:12;;;;;;;1999.90;999.90;;;10.30;97.70;;;;;;5414437;26;19996;-82
2024/04/16 01:23:37;;;;;;;1999.90;999.90;;;10.40;97.70;;;;;;5407745;26;20092;-80
2024/04/16 01:26:03;;;;;;;1999.90;999.90;;;10.40;97.60;;;;;;5428910;26;20955;-82
2024/04/16 01:28:29;;;;;;;1999.90;999.90;;;10.40;97.70;;;;;;5421824;26;20007;-81
2024/04/16 01:30:55;;;;;;;1999.90;999.90;;;10.30;99.30;;;;;;5412574;26;20646;-82
2024/04/16 01:33:20;;;;;;;1999.90;999.90;;;10.30;99.90;;;;;;5431397;26;20010;-81
2024/04/16 01:35:46;;;;;;;1999.90;999.90;;;10.10;99.90;;;;;;5429281;26;20013;-82
2024/04/16 01:38:12;;;;;;;1999.90;999.90;;;10.10;99.90;;;;;;5412294;26;20011;-81
2024/04/16 01:40:37;;;;;;;1999.90;999.90;;;9.90;99.90;;;;;;5416533;26;20017;-81
2024/04/16 01:43:04;;;;;;;1999.90;999.90;;;10.00;99.90;;;;;;5409901;26;20097;-83
2024/04/16 01:45:29;;;;;;;1999.90;999.90;;;10.00;99.90;;;;;;5421728;26;20039;-81
2024/04/16 01:47:55;;;;;;;1999.90;999.90;;;9.90;99.90;;;;;;5418781;26;19999;-80
2024/04/16 01:50:21;;;;;;;1999.90;999.90;;;9.70;99.90;;;;;;5419067;26;20053;-84
2024/04/16 01:52:46;;;;;;;1999.90;999.90;;;9.70;99.90;;;;;;5421014;26;20458;-77
2024/04/16 01:55:12;;;;;;;1999.90;999.90;;;9.60;99.90;;;;;;5418685;26;20549;-77
2024/04/16 01:57:39;;;;;;;1999.90;999.90;;;9.80;99.90;;;;;;5428352;26;19990;-81
2024/04/16 02:00:06;;;;;;;1999.90;999.90;;;9.60;99.90;;;;;;5411336;26;20077;-80
2024/04/16 02:02:35;;;;;;;1999.90;999.90;;;9.60;99.90;;;;;;5416254;26;20898;-79
2024/04/16 02:05:02;;;;;;;1999.90;999.90;;;9.60;99.90;;;;;;5409143;26;20429;-82
2024/04/16 02:07:27;;;;;;;1999.90;999.90;;;9.40;99.90;;;;;;5408504;26;20072;-81
2024/04/16 02:09:53;;;;;;;1999.90;999.90;;;9.30;99.90;;;;;;5412878;26;20435;-83
2024/04/16 02:12:19;;;;;;;1999.90;999.90;;;9.60;99.90;;;;;;5420968;26;19994;-82
2024/04/16 02:14:44;;;;;;;1999.90;999.90;;;9.40;99.90;;;;;;5424394;26;20001;-81
2024/04/16 02:17:10;;;;;;;1999.90;999.90;;;9.50;99.90;;;;;;5415112;26;19995;-80
2024/04/16 02:19:36;;;;;;;1999.90;999.90;;;9.50;99.90;;;;;;5423076;26;19995;-81
2024/04/16 02:22:02;;;;;;;1999.90;999.90;;;9.50;99.90;;;;;;5417780;26;20011;-82
2024/04/16 02:24:28;;;;;;;1999.90;999.90;;;9.50;99.90;;;;;;5428726;26;20072;-81
2024/04/16 02:26:54;;;;;;;1999.90;999.90;;;9.70;99.90;;;;;;5413928;26;20019;-82
2024/04/16 02:29:20;;;;;;;1999.90;999.90;;;10.00;99.90;;;;;;5420199;26;20080;-85
2024/04/16 02:31:45;;;;;;;1999.90;999.90;;;9.90;99.90;;;;;;5431016;26;20003;-84
2024/04/16 02:34:12;;;;;;;1999.90;999.90;;;9.60;99.90;;;;;;5434182;26;19999;-85
2024/04/16 02:36:38;;;;;;;1999.90;999.90;;;9.60;99.90;;;;;;5427192;26;19998;-83
2024/04/16 02:39:04;;;;;;;1999.90;999.90;;;9.20;99.90;;;;;;5419984;26;20032;-86
2024/04/16 02:41:30;;;;;;;1999.90;999.90;;;9.40;99.90;;;;;;5425074;26;20028;-85
2024/04/16 02:43:56;;;;;;;1999.90;999.90;;;9.60;99.90;;;;;;5420660;26;20003;-86
2024/04/16 02:46:22;;;;;;;1999.90;999.90;;;9.30;99.90;;;;;;5426391;26;20007;-85
2024/04/16 02:48:48;;;;;;;1999.90;999.90;;;9.40;99.90;;;;;;5419052;26;20006;-85
2024/04/16 02:51:14;;;;;;;1999.90;999.90;;;9.40;99.90;;;;;;5429255;26;20011;-84
2024/04/16 02:53:40;;;;;;;1999.90;999.90;;;9.20;99.90;;;;;;5427808;26;19994;-82
2024/04/16 02:56:06;;;;;;;1999.90;999.90;;;9.40;99.90;;;;;;5436649;26;19998;-85
2024/04/16 02:58:32;;;;;;;1999.90;999.90;;;9.30;99.90;;;;;;5422473;26;20035;-86
2024/04/16 03:01:03;;;;;;;1999.90;999.90;;;9.50;99.90;;;;;;5422677;26;20090;-86
2024/04/16 03:03:28;;;;;;;1999.90;999.90;;;9.40;99.90;;;;;;5428101;26;19991;-84
2024/04/16 03:05:57;;;;;;;1999.90;999.90;;;9.30;99.90;;;;;;5430791;26;19999;-83
2024/04/16 03:08:23;;;;;;;1999.90;999.90;;;9.10;99.90;;;;;;5419337;26;20684;-84
2024/04/16 03:10:49;;;;;;;1999.90;999.90;;;9.10;99.90;;;;;;5416427;26;20000;-85
2024/04/16 03:13:15;;;;;;;1999.90;999.90;;;9.10;99.90;;;;;;5418874;26;20447;-80
2024/04/16 03:15:40;;;;;;;1999.90;999.90;;;9.10;99.90;;;;;;5424285;26;20011;-84
2024/04/16 03:18:06;;;;;;;1999.90;999.90;;;9.30;99.90;;;;;;5425449;26;20003;-84
2024/04/16 03:20:32;;;;;;;1999.90;999.90;;;9.30;99.90;;;;;;5413596;26;20541;-83
2024/04/16 03:22:57;;;;;;;1999.90;999.90;;;9.20;99.90;;;;;;5411599;26;20003;-81
2024/04/16 03:25:24;;;;;;;1999.90;999.90;;;9.30;99.90;;;;;;5423997;26;20009;-82
2024/04/16 03:27:50;;;;;;;1999.90;999.90;;;9.30;99.90;;;;;;5412148;26;19992;-84
2024/04/16 03:30:16;;;;;;;1999.90;999.90;;;9.40;99.90;;;;;;5415687;26;19996;-82
2024/04/16 03:32:41;;;;;;;1999.90;999.90;;;9.40;99.90;;;;;;5423959;26;19999;-82
2024/04/16 03:35:08;;;;;;;1999.90;999.90;;;9.30;99.90;;;;;;5441520;26;20268;-80
2024/04/16 03:37:34;;;;;;;1999.90;999.90;;;9.30;99.90;;;;;;5417308;26;20010;-81
2024/04/16 03:40:00;;;;;;;1999.90;999.90;;;9.30;99.90;;;;;;5428074;26;20586;-82
2024/04/16 03:42:26;;;;;;;1999.90;999.90;;;9.50;99.90;;;;;;5418758;26;20268;-81
2024/04/16 03:44:54;;;;;;;1999.90;999.90;;;9.40;99.90;;;;;;5432604;26;19995;-80
2024/04/16 03:47:20;;;;;;;1999.90;999.90;;;9.50;99.90;;;;;;5405512;26;19996;-80
2024/04/16 03:49:45;;;;;;;1999.90;999.90;;;9.50;99.90;;;;;;5431046;26;20007;-81
2024/04/16 03:52:11;;;;;;;1999.90;999.90;;;9.40;99.90;;;;;;5434919;26;19991;-81
2024/04/16 03:54:37;;;;;;;1999.90;999.90;;;9.40;99.90;;;;;;5434686;26;20006;-79
2024/04/16 03:57:03;;;;;;;1999.90;999.90;;;9.60;99.90;;;;;;5421526;26;20389;-81
2024/04/16 03:59:38;;;;;;;1999.90;999.90;;;9.40;99.90;;;;;;5418429;26;19995;-79
2024/04/16 04:02:05;;;;;;;1999.90;999.90;;;9.40;99.90;;;;;;5425842;26;20003;-80
2024/04/16 04:04:31;;;;;;;;;;;9.40;99.90;;;;;;5419879;26;20079;-82
2024/04/16 04:06:56;;;;;;;1999.90;999.90;;;9.40;99.90;;;;;;5414876;26;20452;-81
2024/04/16 04:09:22;;;;;;;1999.90;999.90;;;9.20;99.90;;;;;;5422143;26;20514;-83
2024/04/16 04:11:48;;;;;;;1999.90;999.90;;;9.20;99.90;;;;;;5416525;26;20346;-79
2024/04/16 04:14:13;;;;;;;1999.90;999.90;;;9.30;99.90;;;;;;5406750;26;20006;-81
2024/04/16 04:16:39;;;;;;;1999.90;999.90;;;9.20;99.90;;;;;;5418887;26;20009;-80
2024/04/16 04:19:04;;;;;;;1999.90;999.90;;;9.20;99.90;;;;;;5415863;26;20839;-79
2024/04/16 04:21:30;;;;;;;1999.90;999.90;;;9.10;99.90;;;;;;5423203;26;20931;-81
2024/04/16 04:23:56;;;;;;;1999.90;999.90;;;9.00;99.90;;;;;;5416406;26;19999;-79
2024/04/16 04:26:23;;;;;;;1999.90;999.90;;;8.80;99.90;;;;;;5421370;26;20006;-80
2024/04/16 04:28:49;;;;;;;1999.90;999.90;;;9.00;99.90;;;;;;5411594;26;20006;-81
2024/04/16 04:31:16;;;;;;;1999.90;999.90;;;9.10;99.90;;;;;;5427432;26;20022;-79
2024/04/16 04:33:41;;;;;;;1999.90;999.90;;;9.00;99.90;;;;;;5424273;26;20022;-81
2024/04/16 04:36:09;;;;;;;1999.90;999.90;;;8.90;99.90;;;;;;5429319;26;20002;-81
2024/04/16 04:38:34;;;;;;;1999.90;999.90;;;9.00;99.90;;;;;;5432412;26;20628;-80
2024/04/16 04:41:00;;;;;;;1999.90;999.90;;;9.00;99.90;;;;;;5418460;26;20088;-81
2024/04/16 04:43:26;;;;;;;1999.90;999.90;;;9.00;99.90;;;;;;5416183;26;20423;-81
2024/04/16 04:45:51;;;;;;;1999.90;999.90;;;8.90;99.90;;;;;;5427638;26;20018;-82
2024/04/16 04:48:17;;;;;;;1999.90;999.90;;;8.60;99.90;;;;;;5426738;26;20446;-79
2024/04/16 04:50:43;;;;;;;1999.90;999.90;;;8.50;99.90;;;;;;5417554;26;20003;-82
2024/04/16 04:53:08;;;;;;;1999.90;999.90;;;8.50;99.90;;;;;;5420941;26;20083;-88
2024/04/16 04:55:34;;;;;;;1999.90;999.90;;;8.30;99.90;;;;;;5415159;26;20734;-81
2024/04/16 04:58:00;;;;;;;1999.90;999.90;;;8.30;99.90;;;;;;5431847;26;19995;-83
2024/04/16 05:00:26;;;;;;;1999.90;999.90;;;8.30;99.90;;;;;;5412413;26;20385;-83
2024/04/16 05:02:52;;;;;;;1999.90;999.90;;;8.50;99.90;;;;;;5422113;26;20467;-81
2024/04/16 05:05:18;;;;;;;1999.90;999.90;;;8.60;99.90;;;;;;5426657;26;20002;-82
2024/04/16 05:07:43;;;;;;;1999.90;999.90;;;8.80;99.90;;;;;;5426207;26;20007;-80
2024/04/16 05:10:09;;;;;;;1999.90;999.90;;;8.80;99.90;;;;;;5420361;26;20035;-79
2024/04/16 05:12:35;;;;;;;1999.90;999.90;;;9.00;99.90;;;;;;5416774;26;20850;-79
2024/04/16 05:15:02;;;;;;;1999.90;999.90;;;9.10;99.90;;;;;;5415566;26;20015;-80
2024/04/16 05:17:28;;;;;;;;;;;9.00;99.70;;;;;;5414507;26;20000;-80
2024/04/16 05:19:53;;;;;;;1999.90;999.90;;;9.00;99.40;;;;;;5408979;26;20443;-79
2024/04/16 05:22:22;;;;;;;1999.90;999.90;;;9.00;98.60;;;;;;5418451;26;20663;-79
2024/04/16 05:24:48;;;;;;;1999.90;999.90;;;9.00;99.40;;;;;;5421007;26;19999;-77
2024/04/16 05:27:13;;;;;;;1999.90;999.90;;;9.10;98.70;;;;;;5417880;26;20011;-78
2024/04/16 05:29:39;;;;;;;1999.90;999.90;;;9.10;98.20;;;;;;5433058;26;20010;-77
2024/04/16 05:32:05;;;;;;;1999.90;999.90;;;9.10;98.00;;;;;;5419250;26;20031;-75
2024/04/16 05:34:31;;;;;;;1999.90;999.90;;;9.30;97.80;;;;;;5415202;26;19999;-76
2024/04/16 05:36:56;;;;;;;1999.90;999.90;;;9.30;97.80;;;;;;5418408;26;20002;-83
2024/04/16 05:39:22;;;;;;;1999.90;999.90;;;9.40;97.60;;;;;;5424324;26;20899;-80
2024/04/16 05:41:48;;;;;;;1999.90;999.90;;;9.30;97.60;;;;;;5418637;26;20049;-78
2024/04/16 05:44:13;;;;;;;1999.90;999.90;;;9.40;97.60;;;;;;5431081;26;21007;-82
2024/04/16 05:46:39;;;;;;;1999.90;999.90;;;9.30;97.30;;;;;;5428507;26;20549;-78
2024/04/16 05:49:05;;;;;;;1999.90;999.90;;;9.30;98.00;;;;;;5417106;26;20123;-77
2024/04/16 05:51:30;;;;;;;1999.90;999.90;;;9.50;97.50;;;;;;5425010;26;19999;-79
2024/04/16 05:53:56;;;;;;;1999.90;999.90;;;9.40;97.20;;;;;;5415522;26;20073;-80
2024/04/16 05:56:22;;;;;;;1999.90;999.90;;;9.50;97.30;;;;;;5426927;26;19991;-80
2024/04/16 05:58:47;;;;;;;1999.90;999.90;;;9.70;96.70;;;;;;5415813;26;19999;-79
2024/04/16 06:01:14;;;;;;;1999.90;999.90;;;10.00;96.40;;;;;;5423643;26;20011;-80
2024/04/16 06:03:39;;;;;;;1999.90;999.90;;;10.90;95.10;;;;;;5428575;26;20004;-80
2024/04/16 06:06:05;;;;;;;1999.90;999.90;;;12.10;91.50;;;;;;5441192;26;20023;-79
2024/04/16 06:08:31;;;;;;;1999.90;999.90;;;11.90;89.90;;;;;;5420581;26;20054;-80
2024/04/16 06:10:56;;;;;;;1999.90;999.90;;;11.70;90.00;;;;;;5429175;26;19995;-79
2024/04/16 06:13:22;;;;;;;1999.90;999.90;;;11.60;89.80;;;;;;5427949;26;20446;-78
2024/04/16 06:15:48;;;;;;;1999.90;999.90;;;12.00;87.20;;;;;;5413549;26;20014;-82
2024/04/16 06:18:14;;;;;;;1999.90;999.90;;;11.50;87.90;;;;;;5418029;26;20004;-79
2024/04/16 06:20:39;;;;;;;1999.90;999.90;;;11.10;89.10;;;;;;5409375;26;20081;-76
2024/04/16 06:23:05;;;;;;;1999.90;999.90;;;11.00;86.80;;;;;;5410604;26;20000;-76
2024/04/16 06:25:31;;;;;;;1999.90;999.90;;;12.40;85.70;;;;;;5414806;26;20085;-76
2024/04/16 06:27:57;;;;;;;1999.90;999.90;;;13.00;80.60;;;;;;5405161;26;20028;-76
2024/04/16 06:30:23;;;;;;;1999.90;999.90;;;13.90;76.90;;;;;;5429951;26;20002;-77
2024/04/16 06:32:49;;;;;;;1999.90;999.90;;;14.00;76.30;;;;;;5416385;26;19995;-76
2024/04/16 06:35:15;;;;;;;1999.90;999.90;;;15.40;71.20;;;;;;5416019;26;20457;-76
2024/04/16 06:37:41;;;;;;;1999.90;999.90;;;16.20;67.40;;;;;;5428326;26;20034;-76
2024/04/16 06:40:07;;;;;;;1999.90;999.90;;;16.80;63.60;;;;;;5408743;26;19995;-77
2024/04/16 06:42:36;;;;;;;1999.90;999.90;;;16.70;62.40;;;;;;5422443;26;20268;-77
2024/04/16 06:45:03;;;;;;;1999.90;999.90;;;16.20;62.00;;;;;;5423247;26;20007;-77
2024/04/16 06:47:28;;;;;;;1999.90;999.90;;;16.40;63.00;;;;;;5415630;26;19999;-77
2024/04/16 06:49:54;;;;;;;1999.90;999.90;;;17.20;61.10;;;;;;5422157;26;20685;-76
2024/04/16 06:52:20;;;;;;;1999.90;999.90;;;17.80;59.70;;;;;;5416326;26;20000;-76
2024/04/16 06:54:47;;;;;;;1999.90;999.90;;;16.70;53.90;;;;;;5427942;26;20007;-76
2024/04/16 06:57:13;;;;;;;1999.90;999.90;;;16.50;58.10;;;;;;5420132;26;20004;-77
2024/04/16 06:59:39;;;;;;;1999.90;999.90;;;16.90;56.50;;;;;;5430621;26;20419;-77
2024/04/16 07:02:05;;;;;;;1999.90;999.90;;;17.20;52.80;;;;;;5418775;26;20720;-76
2024/04/16 07:04:31;;;;;;;1999.90;999.90;;;18.00;54.40;;;;;;5428304;26;19999;-77
2024/04/16 07:06:57;;;;;;;1999.90;999.90;;;18.40;53.20;;;;;;5426185;26;19994;-76
2024/04/16 07:09:22;;;;;;;1999.90;999.90;;;19.10;52.30;;;;;;5439776;26;20006;-77
2024/04/16 07:11:49;;;;;;;1999.90;999.90;;;19.10;50.30;;;;;;5438756;26;20018;-76
2024/04/16 07:14:14;;;;;;;1999.90;999.90;;;19.00;48.40;;;;;;5425546;26;21116;-76
2024/04/16 07:16:40;;;;;;;1999.90;999.90;;;19.70;49.60;;;;;;5410396;26;19999;-77
2024/04/16 07:19:06;;;;;;;1999.90;999.90;;;20.00;48.80;;;;;;5438546;26;20010;-76
2024/04/16 07:21:31;;;;;;;1999.90;999.90;;;20.20;48.00;;;;;;5410297;26;19999;-77
2024/04/16 07:23:57;;;;;;;1999.90;999.90;;;19.90;46.60;;;;;;5445752;26;20469;-77
2024/04/16 07:26:23;;;;;;;1999.90;999.90;;;21.70;47.60;;;;;;5419275;26;20322;-77
2024/04/16 07:28:48;;;;;;;1999.90;999.90;;;21.60;46.00;;;;;;5432203;26;20346;-78
2024/04/16 07:31:14;;;;;;;1999.90;999.90;;;19.30;49.90;;;;;;5412647;26;20523;-76
2024/04/16 07:33:40;;;;;;;1999.90;999.90;;;17.20;50.30;;;;;;5417990;26;20217;-77
2024/04/16 07:36:08;;;;;;;1999.90;999.90;;;17.00;53.30;;;;;;5424279;26;20003;-76
2024/04/16 07:38:35;;;;;;;1999.90;999.90;;;15.10;53.10;;;;;;5408186;26;20262;-76
2024/04/16 07:41:00;;;;;;;;;;;15.50;51.40;;;;;;5411284;26;19999;-76
2024/04/16 07:43:26;;;;;;;1999.90;999.90;;;14.30;54.80;;;;;;5434526;26;19935;-77
2024/04/16 07:45:52;;;;;;;1999.90;999.90;;;15.90;57.30;;;;;;5431696;26;20000;-76
2024/04/16 07:48:17;;;;;;;1999.90;999.90;;;19.80;48.00;;;;;;5426764;26;20010;-76
2024/04/16 07:50:43;;;;;;;1999.90;999.90;;;18.70;47.00;;;;;;5437636;26;20684;-77
2024/04/16 07:53:09;;;;;;;1999.90;999.90;;;21.20;41.30;;;;;;5437297;26;20053;-78
2024/04/16 07:55:35;;;;;;;1999.90;999.90;;;21.20;41.00;;;;;;5423223;26;20003;-76
2024/04/16 07:58:01;;;;;;;1999.90;999.90;;;22.20;42.30;;;;;;5431190;26;20009;-76
2024/04/16 08:00:28;;;;;;;1999.90;999.90;;;23.20;42.00;;;;;;5433445;26;20090;-76
2024/04/16 08:02:57;;;;;;;1999.90;999.90;;;23.30;38.80;;;;;;5433224;26;19995;-76
2024/04/16 08:05:23;;;;;;;1999.90;999.90;;;22.40;39.50;;;;;;5427310;26;20003;-77
2024/04/16 08:07:49;;;;;;;1999.90;999.90;;;21.80;40.20;;;;;;5416797;26;20011;-78
2024/04/16 08:10:15;;;;;;;1999.90;999.90;;;23.10;39.00;;;;;;5408012;26;19999;-75
2024/04/16 08:12:41;;;;;;;1999.90;999.90;;;23.90;36.40;;;;;;5422579;26;20051;-76
2024/04/16 08:15:06;;;;;;;1999.90;999.90;;;22.80;37.10;;;;;;5408467;26;20024;-77
2024/04/16 08:17:33;;;;;;;1999.90;999.90;;;21.10;39.70;;;;;;5416658;26;20075;-76
2024/04/16 08:19:58;;;;;;;;;;;21.40;41.60;;;;;;5417030;26;20039;-76
2024/04/16 08:22:24;;;;;;;1999.90;999.90;;;23.00;37.90;;;;;;5418021;26;19932;-76
2024/04/16 08:24:50;;;;;;;1999.90;999.90;;;23.60;37.20;;;;;;5416405;26;20490;-77
2024/04/16 08:27:17;;;;;;;;;;;24.60;33.20;;;;;;5403700;26;19991;-76
2024/04/16 08:29:42;;;;;;;1999.90;999.90;;;22.30;37.70;;;;;;5410743;26;19925;-77
2024/04/16 08:32:08;;;;;;;1999.90;999.90;;;23.90;36.30;;;;;;5423540;26;19999;-77
2024/04/16 08:34:40;;;;;;;1999.90;999.90;;;21.80;31.90;;;;;;5420500;26;19995;-77
2024/04/16 08:37:06;;;;;;;1999.90;999.90;;;20.10;37.20;;;;;;5417751;26;19999;-77
2024/04/16 08:39:35;;;;;;;1999.90;999.90;;;17.10;44.00;;;;;;5411545;26;20085;-76
2024/04/16 08:42:01;;;;;;;1999.90;999.90;;;21.80;38.20;;;;;;5409572;26;20117;-77
2024/04/16 08:44:27;;;;;;;1999.90;999.90;;;22.80;36.40;;;;;;5421097;26;20010;-78
2024/04/16 08:46:59;;;;;;;1999.90;999.90;;;23.30;35.30;;;;;;5423172;26;20020;-77
2024/04/16 08:49:28;;;;;;;1999.90;999.90;;;24.30;33.00;;;;;;5428323;26;20181;-76
2024/04/16 08:51:55;;;;;;;1999.90;999.90;;;23.70;33.70;;;;;;5425101;26;20362;-77
2024/04/16 08:54:22;;;;;;;1999.90;999.90;;;20.50;35.70;;;;;;5426323;26;20014;-76
2024/04/16 08:56:50;;;;;;;1999.90;999.90;;;19.40;38.90;;;;;;5424881;26;20017;-76
2024/04/16 08:59:16;;;;;;;1999.90;999.90;;;18.60;41.30;;;;;;5427349;26;20048;-77
2024/04/16 09:01:45;;;;;;;1999.90;999.90;;;18.60;39.90;;;;;;5427782;26;20644;-77
2024/04/16 09:04:14;;;;;;;1999.90;999.90;;;18.70;39.30;;;;;;5430429;26;20805;-76
2024/04/16 09:06:41;;;;;;;1999.90;999.90;;;17.30;42.10;;;;;;5439728;26;20013;-76
2024/04/16 09:09:07;;;;;;;1999.90;999.90;;;18.40;43.20;;;;;;5446286;26;20462;-76
2024/04/16 09:11:32;;;;;;;1999.90;999.90;;;17.70;41.40;;;;;;5441748;26;20006;-76
2024/04/16 09:13:58;;;;;;;1999.90;999.90;;;16.80;42.10;;;;;;5417503;26;20014;-76
2024/04/16 09:16:24;;;;;;;1999.90;999.90;;;20.80;39.50;;;;;;5403371;26;19992;-75
2024/04/16 09:18:50;;;;;;;1999.90;999.90;;;22.70;40.40;;;;;;5418116;26;20016;-77
2024/04/16 09:21:16;;;;;;;1999.90;999.90;;;23.80;34.70;;;;;;5435936;26;20357;-76
2024/04/16 09:23:54;;;;;;;1999.90;999.90;;;25.50;33.90;;;;;;5422746;26;19998;-76
2024/04/16 09:26:20;;;;;;;1999.90;999.90;;;23.40;35.10;;;;;;5408866;26;20110;-77
2024/04/16 09:28:47;;;;;;;1999.90;999.90;;;22.60;36.50;;;;;;5404404;26;20637;-77
2024/04/16 09:31:16;;;;;;;1999.90;999.90;;;20.50;39.70;;;;;;5403946;26;20011;-77
2024/04/16 09:33:41;;;;;;;1999.90;999.90;;;19.20;42.80;;;;;;5421333;26;20107;-76
2024/04/16 09:36:14;;;;;;;1999.90;999.90;;;18.20;42.70;;;;;;5416774;26;20481;-76
2024/04/16 09:38:49;;;;;;;1999.90;999.90;;;17.40;44.40;;;;;;5412945;26;19999;-77
2024/04/16 09:41:14;;;;;;;1999.90;999.90;;;16.80;45.30;;;;;;5411931;26;20002;-76
2024/04/16 09:43:41;;;;;;;1999.90;999.90;;;17.10;44.80;;;;;;5438500;26;20529;-77
2024/04/16 09:46:11;;;;;;;;;;;18.30;46.40;;;;;;5427301;26;20212;-76
2024/04/16 09:48:40;;;;;;;1999.90;999.90;;;21.40;39.60;;;;;;5421764;26;19935;-77
2024/04/16 09:51:07;;;;;;;1999.90;999.90;;;20.70;37.70;;;;;;5423568;26;20072;-76
2024/04/16 09:53:37;;;;;;;1999.90;999.90;;;21.00;37.70;;;;;;5424018;26;20088;-76
2024/04/16 09:56:05;;;;;;;1999.90;999.90;;;19.50;39.20;;;;;;5425876;26;20034;-77
2024/04/16 09:58:33;;;;;;;1999.90;999.90;;;18.30;40.40;;;;;;5422542;26;20000;-76
2024/04/16 10:01:00;;;;;;;1999.90;999.90;;;17.90;41.50;;;;;;5435714;26;20013;-77
2024/04/16 10:03:30;;;;;;;1999.90;999.90;;;17.40;42.80;;;;;;5428564;26;20047;-76
2024/04/16 10:05:56;;;;;;;1999.90;999.90;;;17.20;44.50;;;;;;5415091;26;20003;-76
2024/04/16 10:08:24;;;;;;;1999.90;999.90;;;16.70;42.30;;;;;;5428462;26;20007;-77
2024/04/16 10:10:55;;;;;;;1999.90;999.90;;;17.00;44.40;;;;;;5441455;26;20039;-76
2024/04/16 10:13:21;;;;;;;1999.90;999.90;;;17.20;45.80;;;;;;5430805;26;20091;-76
2024/04/16 10:15:47;;;;;;;1999.90;999.90;;;17.50;44.70;;;;;;5406119;26;20011;-76
2024/04/16 10:18:14;;;;;;;1999.90;999.90;;;17.80;46.10;;;;;;5424807;26;20438;-77
2024/04/16 10:20:50;;;;;;;1999.90;999.90;;;18.00;44.10;;;;;;5408738;26;20002;-77
2024/04/16 10:23:19;;;;;;;1999.90;999.90;;;17.90;45.20;;;;;;5419655;26;20003;-76
2024/04/16 10:25:52;;;;;;;1999.90;999.90;;;16.50;45.50;;;;;;5421191;26;20003;-76
2024/04/16 10:28:24;;;;;;;1999.90;999.90;;;15.80;48.50;;;;;;5403160;26;20007;-77
2024/04/16 10:31:01;;;;;;;1999.90;999.90;;;15.50;48.10;;;;;;5416523;26;20014;-77
2024/04/16 10:33:31;;;;;;;1999.90;999.90;;;15.70;48.40;;;;;;5408771;26;20573;-76
2024/04/16 10:35:57;;;;;;;1999.90;999.90;;;15.80;49.00;;;;;;5415500;26;20961;-75
2024/04/16 10:38:26;;;;;;;1999.90;999.90;;;15.80;47.60;;;;;;5410812;26;20083;-77
2024/04/16 10:40:56;;;;;;;1999.90;999.90;;;16.10;46.20;;;;;;5407772;26;20054;-75
2024/04/16 10:43:26;;;;;;;1999.90;999.90;;;16.90;44.10;;;;;;5411985;26;20077;-76
2024/04/16 10:45:53;;;;;;;1999.90;999.90;;;18.00;44.70;;;;;;5425724;26;19996;-76
2024/04/16 10:48:21;;;;;;;1999.90;999.90;;;17.40;41.20;;;;;;5424799;26;20331;-76
2024/04/16 10:50:47;;;;;;;1999.90;999.90;;;17.30;42.30;;;;;;5436749;26;20546;-76
2024/04/16 10:53:14;;;;;;;1999.90;999.90;;;16.80;42.80;;;;;;5425907;26;19998;-76
2024/04/16 10:55:43;;;;;;;1999.90;999.90;;;16.70;43.00;;;;;;5422895;26;20858;-76
2024/04/16 10:58:13;;;;;;;1999.90;999.90;;;16.40;44.30;;;;;;5428013;26;20002;-77
2024/04/16 11:00:39;;;;;;;1999.90;999.90;;;16.10;44.50;;;;;;5428208;26;19999;-76
2024/04/16 11:03:05;;;;;;;1999.90;999.90;;;15.90;43.40;;;;;;5428404;26;20890;-77
2024/04/16 11:05:31;;;;;;;1999.90;999.90;;;16.40;45.40;;;;;;5428930;26;19999;-77
2024/04/16 11:07:57;;;;;;;1999.90;999.90;;;16.60;42.90;;;;;;5422251;26;20003;-77
2024/04/16 11:10:23;;;;;;;1999.90;999.90;;;17.70;43.40;;;;;;5410856;26;20003;-76
2024/04/16 11:12:49;;;;;;;1999.90;999.90;;;18.20;44.10;;;;;;5427389;26;20346;-77
2024/04/16 11:15:16;;;;;;;1999.90;999.90;;;17.40;44.00;;;;;;5425889;26;20044;-76
2024/04/16 11:17:41;;;;;;;1999.90;999.90;;;17.40;43.30;;;;;;5427121;26;20011;-77
2024/04/16 11:20:08;;;;;;;1999.90;999.90;;;17.00;44.80;;;;;;5424658;26;20466;-75
2024/04/16 11:22:34;;;;;;;;;;;16.20;46.00;;;;;;5429550;26;20075;-77
2024/04/16 11:25:00;;;;;;;1999.90;999.90;;;16.40;46.40;;;;;;5427370;26;19932;-77
2024/04/16 11:27:28;;;;;;;1999.90;999.90;;;16.50;45.70;;;;;;5434784;26;20010;-77
2024/04/16 11:29:53;;;;;;;1999.90;999.90;;;16.40;45.20;;;;;;5412009;26;20010;-76
2024/04/16 11:32:20;;;;;;;1999.90;999.90;;;15.40;48.40;;;;;;5420403;26;19994;-76
2024/04/16 11:34:46;;;;;;;1999.90;999.90;;;14.90;48.60;;;;;;5420084;26;20398;-75
2024/04/16 11:37:16;;;;;;;1999.90;999.90;;;15.30;50.70;;;;;;5427357;26;20003;-76
2024/04/16 11:39:44;;;;;;;1999.90;999.90;;;15.40;49.20;;;;;;5433131;26;20014;-75
2024/04/16 11:42:11;;;;;;;1999.90;999.90;;;15.50;48.50;;;;;;5415595;26;20404;-77
2024/04/16 11:44:40;;;;;;;1999.90;999.90;;;15.90;44.10;;;;;;5430267;26;20003;-76
2024/04/16 11:47:10;;;;;;;1999.90;999.90;;;16.30;47.30;;;;;;5415261;26;20462;-76
2024/04/16 11:49:37;;;;;;;1999.90;999.90;;;16.90;48.10;;;;;;5433227;26;20092;-77
2024/04/16 11:52:04;;;;;;;1999.90;999.90;;;17.20;42.30;;;;;;5414984;26;20503;-76
2024/04/16 11:54:34;;;;;;;1999.90;999.90;;;17.50;46.90;;;;;;5425329;26;20003;-77
2024/04/16 11:57:01;;;;;;;1999.90;999.90;;;17.40;44.10;;;;;;5416713;26;20000;-77
2024/04/16 11:59:26;;;;;;;1999.90;999.90;;;17.00;45.80;;;;;;5420808;26;19995;-76
2024/04/16 12:01:52;;;;;;;1999.90;999.90;;;16.80;44.40;;;;;;5420565;26;20010;-77